Time;durP1;ratioP1;P1;durP2;ratioP2;P2;SDS_P1;SDS_P2;PMS_P1;PMS_P2;Temp;Humidity;BMP_temperature;BMP_pressure;BME280_temperature;BME280_humidity;BME280_pressure;Samples;Min_cycle;Max_cycle;Signal;HPM_P1;HPM_P2
2022/05/18 00:03:52;;;;;;;13.35;8.43;;;;;;;17.07;59.53;98485.63;10109050;29;20056;-76
2022/05/18 00:09:13;;;;;;;11.00;8.10;;;;;;;17.09;59.32;98482.94;10120758;29;20049;-74
2022/05/18 00:14:34;;;;;;;13.07;9.02;;;;;;;17.05;59.56;98477.78;10108149;29;20104;-76
2022/05/18 00:19:55;;;;;;;12.88;9.77;;;;;;;17.01;59.59;98485.31;10121280;29;20093;-76
2022/05/18 00:25:16;;;;;;;13.93;9.45;;;;;;;16.98;59.64;98484.44;10121734;29;20052;-76
2022/05/18 00:30:40;;;;;;;12.85;9.55;;;;;;;16.91;59.78;98490.41;10108747;29;20057;-76
2022/05/18 00:36:01;;;;;;;12.52;10.43;;;;;;;16.76;59.67;98495.25;10121788;29;20051;-76
2022/05/18 00:41:23;;;;;;;11.45;9.77;;;;;;;16.82;60.02;98497.69;10094357;29;20511;-76
2022/05/18 00:46:44;;;;;;;14.57;10.18;;;;;;;16.84;60.08;98494.97;10140153;29;20072;-75
2022/05/18 00:52:06;;;;;;;13.70;10.43;;;;;;;16.86;60.14;98509.16;10113943;29;20079;-74
2022/05/18 00:57:29;;;;;;;14.10;10.13;;;;;;;16.87;59.97;98505.00;10100933;29;20044;-77
2022/05/18 01:02:53;;;;;;;14.30;10.93;;;;;;;16.82;59.76;98514.59;10075126;29;20048;-77
2022/05/18 01:08:15;;;;;;;13.70;11.48;;;;;;;16.65;59.77;98517.84;10074645;29;20072;-75
2022/05/18 01:13:36;;;;;;;14.85;11.35;;;;;;;16.51;60.52;98523.41;10092219;29;20518;-75
2022/05/18 01:18:57;;;;;;;13.07;10.48;;;;;;;16.56;60.53;98516.66;10097528;29;20047;-75
2022/05/18 01:24:33;;;;;;;14.50;10.45;;;;;;;16.66;60.38;98517.22;10111892;29;20076;-76
2022/05/18 01:29:55;;;;;;;18.98;11.02;;;;;;;16.74;60.43;98528.97;10098955;29;20036;-74
2022/05/18 01:35:20;;;;;;;16.52;11.77;;;;;;;16.78;60.42;98526.38;10106132;29;20082;-75
2022/05/18 01:40:47;;;;;;;13.52;10.45;;;;;;;16.71;60.97;98527.41;10096867;29;20056;-75
2022/05/18 01:46:12;;;;;;;17.08;10.90;;;;;;;16.61;60.60;98540.91;10121259;29;20068;-75
2022/05/18 01:51:34;;;;;;;20.52;11.15;;;;;;;16.47;60.87;98542.91;10099130;29;20055;-76
2022/05/18 01:56:58;;;;;;;16.63;11.85;;;;;;;16.48;60.72;98544.38;10111284;29;20081;-75
2022/05/18 02:10:48;;;;;;;16.52;11.20;;;;;;;16.45;60.95;98556.88;10138568;29;20048;-75
2022/05/18 02:16:37;;;;;;;14.95;11.50;;;;;;;16.42;61.24;98558.13;10118106;29;20464;-75
2022/05/18 02:21:58;;;;;;;12.32;10.90;;;;;;;16.34;61.31;98568.91;10098122;29;20060;-75
2022/05/18 02:27:18;;;;;;;15.75;12.05;;;;;;;16.33;61.47;98562.56;10110728;29;20114;-75
2022/05/18 02:32:39;;;;;;;14.77;11.40;;;;;;;16.38;61.59;98569.13;10097499;29;20055;-75
2022/05/18 02:37:59;;;;;;;13.48;10.52;;;;;;;16.39;61.50;98570.59;10110242;29;20111;-75
2022/05/18 02:43:20;;;;;;;20.58;12.07;;;;;;;16.34;61.51;98574.56;10134261;29;20056;-76
2022/05/18 02:49:09;;;;;;;15.57;11.55;;;;;;;16.16;61.84;98579.84;10128103;29;20053;-76
2022/05/18 03:00:40;;;;;;;13.35;10.93;;;;;;;16.23;62.29;98588.06;10125735;29;20045;-75
2022/05/18 03:14:06;;;;;;;15.40;11.75;;;;;;;16.37;62.23;98595.84;10138099;29;20048;-75
2022/05/18 03:19:55;;;;;;;12.77;11.15;;;;;;;16.40;62.14;98603.06;10117838;29;20492;-74
2022/05/18 03:25:44;;;;;;;14.63;12.30;;;;;;;16.46;62.44;98600.59;10126508;29;20056;-74
2022/05/18 03:31:33;;;;;;;14.40;11.57;;;;;;;16.57;62.43;98613.94;10126826;29;20056;-74
2022/05/18 03:37:22;;;;;;;14.35;11.82;;;;;;;16.69;62.35;98625.94;10125793;29;20499;-74
2022/05/18 03:42:42;;;;;;;14.00;11.20;;;;;;;16.83;62.35;98634.47;10107998;29;20088;-76
2022/05/18 03:48:05;;;;;;;15.18;11.50;;;;;;;16.68;61.84;98635.75;10105781;29;20048;-76
2022/05/18 03:53:26;;;;;;;15.68;10.00;;;;;;;16.65;61.99;98645.41;10120572;29;20403;-76
2022/05/18 03:58:47;;;;;;;12.27;8.88;;;;;;;16.64;61.97;98649.56;10095199;29;20049;-84
2022/05/18 04:04:08;;;;;;;14.63;10.45;;;;;;;16.48;62.18;98666.25;10107643;29;20436;-76
2022/05/18 04:09:29;;;;;;;13.13;9.43;;;;;;;16.46;62.50;98662.59;10120883;29;20049;-81
2022/05/18 04:14:54;;;;;;;14.98;11.52;;;;;;;16.22;62.67;98662.63;10133590;29;20056;-75
2022/05/18 04:20:19;;;;;;;15.57;11.65;;;;;;;16.20;63.22;98668.13;10114171;29;20067;-76
2022/05/18 04:25:41;;;;;;;14.23;12.73;;;;;;;16.13;62.80;98668.41;10128049;29;20056;-77
2022/05/18 04:31:02;;;;;;;17.95;14.10;;;;;;;16.09;62.59;98680.13;10089175;29;20502;-78
2022/05/18 04:36:23;;;;;;;19.45;14.60;;;;;;;16.11;62.65;98682.34;10089375;29;20052;-78
2022/05/18 04:41:43;;;;;;;22.15;13.55;;;;;;;16.10;62.34;98694.94;10110441;29;20456;-79
2022/05/18 04:47:04;;;;;;;19.40;14.43;;;;;;;16.09;62.38;98697.03;10114058;29;20439;-73
2022/05/18 04:52:25;;;;;;;16.50;12.27;;;;;;;16.22;62.32;98701.34;10111913;29;20049;-77
2022/05/18 04:57:45;;;;;;;17.33;11.77;;;;;;;16.40;61.93;98704.50;10100524;29;20072;-76
2022/05/18 05:03:06;;;;;;;16.83;12.43;;;;;;;16.67;61.54;98712.44;10100823;29;20041;-73
2022/05/18 05:08:27;;;;;;;14.85;11.05;;;;;;;17.00;60.97;98720.75;10126811;29;20052;-74
2022/05/18 05:13:47;;;;;;;14.88;11.23;;;;;;;17.46;59.04;98726.19;10099312;29;20055;-76
2022/05/18 05:19:08;;;;;;;13.10;10.27;;;;;;;17.89;58.44;98731.41;10111583;29;20511;-75
2022/05/18 05:24:29;;;;;;;11.57;9.85;;;;;;;18.28;56.57;98731.38;10100072;29;20473;-75
2022/05/18 05:29:50;;;;;;;13.13;8.60;;;;;;;18.68;55.34;98734.16;10125153;29;20045;-72
2022/05/18 05:35:11;;;;;;;11.10;8.60;;;;;;;19.14;54.58;98730.84;10112589;29;20053;-73
2022/05/18 05:40:32;;;;;;;10.43;7.57;;;;;;;19.82;52.43;98734.09;10112422;29;20480;-73
2022/05/18 05:46:01;;;;;;;14.70;7.20;;;;;;;22.46;47.04;98736.63;10112312;29;20051;-73
2022/05/18 05:51:23;;;;;;;14.65;7.47;;;;;;;26.84;42.81;98739.50;10099798;29;20076;-73
2022/05/18 05:56:44;;;;;;;11.13;7.10;;;;;;;32.41;35.23;98740.25;10124954;29;20076;-75
2022/05/18 06:02:08;;;;;;;13.65;7.75;;;;;;;35.18;28.16;98764.47;10111383;29;20297;-75
2022/05/18 06:07:30;;;;;;;9.98;6.00;;;;;;;36.44;25.17;98761.59;10112085;29;20132;-77
2022/05/18 06:12:51;;;;;;;10.75;6.25;;;;;;;35.14;23.44;98758.03;10111729;29;20048;-75
2022/05/18 06:18:12;;;;;;;8.83;5.57;;;;;;;36.75;23.85;98763.84;10110834;29;20514;-77
2022/05/18 06:23:37;;;;;;;11.48;4.40;;;;;;;39.84;16.67;98769.88;10124535;29;20044;-77
2022/05/18 06:28:58;;;;;;;9.93;3.95;;;;;;;41.76;15.12;98765.56;10110466;29;20487;-76
2022/05/18 06:34:22;;;;;;;7.40;3.88;;;;;;;42.88;14.01;98769.38;10123219;29;20057;-77
2022/05/18 06:39:42;;;;;;;8.20;3.67;;;;;;;43.99;12.43;98772.66;10110618;29;20049;-78
2022/05/18 06:45:04;;;;;;;8.82;3.72;;;;;;;45.34;11.46;98774.19;10109466;29;20487;-75
2022/05/18 06:50:24;;;;;;;5.97;3.30;;;;;;;46.12;10.89;98788.75;10109563;29;20049;-77
2022/05/18 06:55:47;;;;;;;8.23;2.92;;;;;;;47.91;9.79;98776.53;10122414;29;20040;-78
2022/05/18 07:01:24;;;;;;;4.55;2.13;;;;;;;48.13;8.72;98783.16;10111697;29;20048;-77
2022/05/18 07:06:45;;;;;;;3.90;2.20;;;;;;;48.32;7.74;98788.53;10109217;29;20056;-77
2022/05/18 07:12:07;;;;;;;6.68;2.58;;;;;;;47.42;8.15;98800.50;10109303;29;20052;-78
2022/05/18 07:17:28;;;;;;;4.78;2.60;;;;;;;47.52;8.33;98802.06;10122034;29;20068;-77
2022/05/18 07:23:09;;;;;;;8.25;2.70;;;;;;;47.89;8.44;98801.03;10110991;29;20049;-78
2022/05/18 07:28:31;;;;;;;8.98;2.75;;;;;;;50.25;7.51;98803.16;10108588;29;20041;-78
2022/05/18 07:33:52;;;;;;;7.85;2.67;;;;;;;50.22;7.29;98801.94;10134985;29;20407;-79
2022/05/18 07:39:13;;;;;;;10.57;2.30;;;;;;;49.84;7.76;98801.09;10107668;29;20053;-79
2022/05/18 07:44:37;;;;;;;5.65;2.30;;;;;;;49.57;7.07;98807.59;10106853;29;20052;-78
2022/05/18 07:50:01;;;;;;;5.45;2.28;;;;;;;51.73;6.45;98794.06;10095187;29;20044;-74
2022/05/18 07:55:23;;;;;;;6.97;2.28;;;;;;;50.92;5.58;98803.78;10086529;29;20509;-76
2022/05/18 08:00:45;;;;;;;6.75;2.38;;;;;;;51.73;6.17;98802.97;10116029;29;20052;-78
2022/05/18 08:06:10;;;;;;;7.43;2.03;;;;;;;52.34;5.28;98803.72;10104157;29;20063;-77
2022/05/18 08:17:11;;;;;;;4.90;1.88;;;;;;;53.51;5.28;98800.00;10118826;29;20121;-78
2022/05/18 08:22:35;;;;;;;7.95;1.83;;;;;;;53.93;4.72;98806.53;10102093;29;20051;-77
2022/05/18 08:27:56;;;;;;;7.10;1.80;;;;;;;53.43;4.54;98798.47;10102481;29;20112;-76
2022/05/18 08:33:20;;;;;;;6.10;2.28;;;;;;;52.58;5.06;98812.09;10128159;29;20063;-76
2022/05/18 08:38:42;;;;;;;3.35;1.92;;;;;;;51.58;5.05;98811.03;10075863;29;20496;-77
2022/05/18 08:44:06;;;;;;;7.13;2.65;;;;;;;51.46;5.21;98806.81;10101558;29;20045;-76
2022/05/18 08:49:40;;;;;;;4.28;2.15;;;;;;;44.92;8.78;98806.78;10088579;29;20104;-75
2022/05/18 08:55:41;;;;;;;4.13;2.28;;;;;;;42.30;11.35;98801.31;10102099;29;20053;-79
2022/05/18 09:01:24;;;;;;;6.13;2.00;;;;;;;46.97;8.49;98809.31;10049918;29;20061;-77
2022/05/18 09:06:52;;;;;;;3.80;2.42;;;;;;;48.09;7.36;98810.09;10062101;29;20045;-80
2022/05/18 09:12:16;;;;;;;9.13;2.00;;;;;;;48.62;7.02;98809.34;10087766;29;20041;-78
2022/05/18 09:17:59;;;;;;;4.68;2.10;;;;;;;50.27;5.88;98805.97;10100583;29;20045;-78
2022/05/18 09:23:20;;;;;;;8.98;2.40;;;;;;;49.74;6.67;98807.09;10100680;29;20049;-78
2022/05/18 09:28:49;;;;;;;9.30;2.42;;;;;;;50.65;6.19;98814.81;10087608;29;20041;-79
2022/05/18 09:34:39;;;;;;;;;;;;;;;;;;;;;
2022/05/18 09:40:34;;;;;;;8.45;2.63;;;;;;;39.32;11.08;98808.13;10087076;29;20539;-76
2022/05/18 09:45:55;;;;;;;4.38;2.20;;;;;;;40.19;13.51;98806.72;10086527;29;20491;-79
2022/05/18 09:51:23;;;;;;;4.65;1.88;;;;;;;44.90;9.63;98804.63;10073965;29;20049;-81
2022/05/18 09:56:47;;;;;;;4.55;2.10;;;;;;;43.54;10.41;98811.72;10073661;29;20116;-81
2022/05/18 10:07:57;;;;;;;4.93;1.70;;;;;;;46.92;8.40;98802.28;10085616;29;20140;-79
2022/05/18 10:13:19;;;;;;;5.57;2.13;;;;;;;43.36;8.84;98801.59;10085606;29;20056;-79
2022/05/18 10:19:00;;;;;;;5.07;1.90;;;;;;;37.10;13.07;98787.81;10084580;29;20063;-78
2022/05/18 10:24:36;;;;;;;4.82;2.38;;;;;;;34.27;15.44;98777.97;10085488;29;20128;-77
2022/05/18 10:30:13;;;;;;;6.47;2.65;;;;;;;36.05;17.13;98782.66;10097317;29;20056;-78
2022/05/18 10:35:37;;;;;;;4.53;2.70;;;;;;;43.23;11.85;98788.97;10084590;29;20045;-79
2022/05/18 10:41:04;;;;;;;3.55;1.88;;;;;;;40.83;10.88;98791.94;10071623;29;20057;-78
2022/05/18 10:46:32;;;;;;;3.33;1.85;;;;;;;36.24;13.33;98771.41;10085469;29;20377;-77
2022/05/18 10:51:53;;;;;;;6.95;2.42;;;;;;;34.02;15.04;98773.88;10083722;29;20048;-77
2022/05/18 10:57:19;;;;;;;5.15;1.80;;;;;;;34.41;15.58;98771.31;10071881;29;20089;-77
2022/05/18 11:02:58;;;;;;;3.50;1.98;;;;;;;34.83;15.63;98763.50;10083830;29;20053;-76
2022/05/18 11:08:22;;;;;;;3.97;2.08;;;;;;;34.66;15.55;98760.13;10084361;29;20097;-79
2022/05/18 11:13:57;;;;;;;6.90;2.05;;;;;;;32.62;16.86;98756.06;10084308;29;20049;-79
2022/05/18 11:19:42;;;;;;;3.75;1.83;;;;;;;31.90;18.21;98746.88;10071815;29;20045;-79
2022/05/18 11:25:20;;;;;;;8.70;1.95;;;;;;;30.85;18.54;98738.88;10070533;29;20492;-78
2022/05/18 11:31:12;;;;;;;4.95;2.40;;;;;;;30.42;19.19;98735.13;10085039;29;20057;-81
2022/05/18 11:36:43;;;;;;;5.05;1.60;;;;;;;29.57;19.71;98736.03;10083102;29;20056;-76
2022/05/18 11:42:22;;;;;;;6.97;1.98;;;;;;;29.69;19.99;98726.03;10083783;29;20057;-76
2022/05/18 11:48:07;;;;;;;4.22;1.70;;;;;;;29.91;19.83;98720.41;10095742;29;20052;-77
2022/05/18 11:54:17;;;;;;;3.70;1.73;;;;;;;29.74;20.89;98718.91;10106236;29;20041;-74
2022/05/18 11:59:57;;;;;;;3.67;1.40;;;;;;;29.26;20.73;98719.94;10104247;29;20136;-75
2022/05/18 12:05:21;;;;;;;4.97;2.20;;;;;;;29.82;21.07;98707.41;10095391;29;20049;-75
2022/05/18 12:10:49;;;;;;;6.10;2.33;;;;;;;28.76;21.72;98718.75;10095389;29;20045;-77
2022/05/18 12:16:23;;;;;;;6.40;2.70;;;;;;;28.29;22.57;98705.28;10095371;29;20552;-76
2022/05/18 12:21:47;;;;;;;6.30;2.22;;;;;;;28.53;22.70;98705.53;10095172;29;20048;-77
2022/05/18 12:27:08;;;;;;;6.00;2.00;;;;;;;28.59;22.57;98704.91;10094984;29;20102;-77
2022/05/18 12:32:30;;;;;;;7.80;2.45;;;;;;;29.10;22.26;98723.41;10128967;29;20399;-74
2022/05/18 12:38:06;;;;;;;6.55;1.95;;;;;;;28.14;22.65;98719.41;10119412;29;20483;-73
2022/05/18 12:43:32;;;;;;;4.20;1.98;;;;;;;27.90;23.04;98713.34;10141456;29;20061;-75
2022/05/18 12:48:57;;;;;;;6.13;2.13;;;;;;;27.65;23.22;98704.38;10127626;29;20055;-76
2022/05/18 12:54:25;;;;;;;8.32;2.25;;;;;;;27.43;23.44;98715.50;10113941;29;20064;-75
2022/05/18 12:59:56;;;;;;;8.18;1.67;;;;;;;27.74;23.30;98698.78;10100787;29;20083;-76
2022/05/18 13:05:45;;;;;;;4.60;2.25;;;;;;;27.59;23.71;98700.66;10124677;29;20104;-79
2022/05/18 13:11:29;;;;;;;5.28;2.10;;;;;;;27.42;23.63;98696.13;10137610;29;20044;-77
2022/05/18 13:17:13;;;;;;;3.80;1.58;;;;;;;27.12;23.75;98699.19;10088274;29;20053;-82
2022/05/18 13:23:01;;;;;;;7.10;1.88;;;;;;;26.27;24.52;98692.56;10110383;29;20079;-75
2022/05/18 13:28:22;;;;;;;8.70;1.77;;;;;;;25.61;25.46;98694.00;10111411;29;20119;-74
2022/05/18 13:33:58;;;;;;;3.88;1.70;;;;;;;25.91;25.28;98684.66;10124996;29;20044;-75
2022/05/18 13:39:39;;;;;;;4.93;1.88;;;;;;;26.24;25.10;98683.19;10100017;29;20053;-76
2022/05/18 13:45:05;;;;;;;7.25;1.83;;;;;;;26.31;24.69;98670.47;10099283;29;20076;-75
2022/05/18 13:50:30;;;;;;;4.90;1.42;;;;;;;26.90;24.58;98668.72;10091191;29;20045;-74
2022/05/18 13:56:03;;;;;;;3.55;1.50;;;;;;;26.71;24.26;98658.34;10140365;29;20040;-75
2022/05/18 14:01:32;;;;;;;2.45;1.60;;;;;;;26.25;24.64;98661.78;10110680;29;20136;-74
2022/05/18 14:06:53;;;;;;;4.20;1.50;;;;;;;26.12;25.05;98657.94;10095528;29;20499;-74
2022/05/18 14:12:15;;;;;;;4.80;1.30;;;;;;;26.04;24.81;98646.31;10117818;29;20053;-74
2022/05/18 14:17:55;;;;;;;3.67;1.67;;;;;;;26.11;25.17;98658.63;10070482;29;20415;-74
2022/05/18 14:23:37;;;;;;;5.25;1.48;;;;;;;25.55;25.91;98653.09;10096589;29;20041;-74
2022/05/18 14:28:58;;;;;;;3.88;1.75;;;;;;;25.25;25.74;98655.97;10117665;29;20052;-74
2022/05/18 14:34:21;;;;;;;3.45;1.30;;;;;;;25.28;25.88;98641.06;10096442;29;20041;-74
2022/05/18 14:39:44;;;;;;;3.67;1.38;;;;;;;25.79;26.03;98632.94;10107252;29;20060;-75
2022/05/18 14:45:08;;;;;;;4.10;1.60;;;;;;;25.51;25.46;98641.59;10108746;29;20052;-79
2022/05/18 14:50:31;;;;;;;3.00;1.50;;;;;;;25.49;25.68;98632.97;10104101;29;20052;-83
2022/05/18 14:55:58;;;;;;;2.38;1.25;;;;;;;25.69;25.94;98627.69;10082871;29;20060;-77
2022/05/18 15:01:29;;;;;;;3.30;1.10;;;;;;;25.48;25.31;98640.06;10107795;29;20053;-76
2022/05/18 15:06:51;;;;;;;7.30;1.70;;;;;;;25.17;25.92;98630.81;10096826;29;20049;-77
2022/05/18 15:12:25;;;;;;;6.25;1.60;;;;;;;24.65;26.69;98633.06;10102845;29;20040;-77
2022/05/18 15:17:52;;;;;;;2.75;1.10;;;;;;;24.42;26.72;98635.34;10092114;29;20056;-77
2022/05/18 15:23:28;;;;;;;3.00;1.17;;;;;;;24.45;26.93;98627.53;10082483;29;20053;-74
2022/05/18 15:28:56;;;;;;;9.48;2.55;;;;;;;24.43;27.71;98636.06;10109630;29;20438;-73
2022/05/18 15:34:37;;;;;;;4.85;1.20;;;;;;;24.41;27.14;98627.41;10131251;29;20040;-74
2022/05/18 15:39:59;;;;;;;8.30;1.40;;;;;;;24.57;26.84;98627.84;10121324;29;20096;-76
2022/05/18 15:45:19;;;;;;;3.53;1.10;;;;;;;24.48;27.31;98626.91;10069651;29;20045;-74
2022/05/18 15:50:40;;;;;;;3.30;1.10;;;;;;;24.24;27.31;98638.38;10095392;29;20041;-73
2022/05/18 15:56:10;;;;;;;4.20;1.30;;;;;;;24.27;27.21;98639.88;10107984;29;20131;-75
2022/05/18 16:01:31;;;;;;;3.22;1.35;;;;;;;24.17;27.24;98633.91;10095424;29;20081;-75
2022/05/18 16:06:52;;;;;;;3.80;1.13;;;;;;;24.16;27.50;98632.44;10095019;29;20052;-74
2022/05/18 16:12:13;;;;;;;6.28;1.20;;;;;;;24.06;27.26;98620.03;10120528;29;20044;-74
2022/05/18 16:17:34;;;;;;;3.90;1.20;;;;;;;23.82;27.81;98623.63;10101123;29;20044;-73
2022/05/18 16:22:55;;;;;;;5.13;1.10;;;;;;;23.68;27.81;98618.25;10115303;29;20055;-74
2022/05/18 16:28:19;;;;;;;2.80;0.82;;;;;;;23.59;28.00;98624.38;10102267;29;20048;-75
2022/05/18 16:33:40;;;;;;;4.30;1.10;;;;;;;23.51;28.14;98629.81;10087136;29;20067;-78
2022/05/18 16:39:02;;;;;;;3.65;1.10;;;;;;;23.30;28.58;98622.75;10114502;29;20091;-74
2022/05/18 16:44:24;;;;;;;2.67;0.90;;;;;;;23.10;28.87;98617.88;10101452;29;20096;-76
2022/05/18 16:49:45;;;;;;;3.93;0.83;;;;;;;23.12;28.67;98617.22;10075453;29;20045;-81
2022/05/18 16:55:07;;;;;;;5.47;0.95;;;;;;;23.01;29.13;98626.81;10088748;29;20045;-84
2022/05/18 17:00:28;;;;;;;3.85;1.10;;;;;;;22.86;29.25;98622.78;10088208;29;20041;-83
2022/05/18 17:05:58;;;;;;;3.22;1.42;;;;;;;22.84;29.17;98625.56;10088047;29;20052;-81
2022/05/18 17:11:57;;;;;;;2.03;1.10;;;;;;;22.85;29.55;98630.59;10063097;29;20037;-83
2022/05/18 17:17:18;;;;;;;2.60;1.13;;;;;;;22.80;29.30;98631.81;10007799;29;20061;-81
2022/05/18 17:22:39;;;;;;;4.82;1.25;;;;;;;22.71;29.23;98629.38;10059877;29;20055;-77
2022/05/18 17:28:01;;;;;;;2.40;1.30;;;;;;;22.53;29.54;98626.63;10095760;29;20562;-80
2022/05/18 17:33:22;;;;;;;2.70;0.90;;;;;;;22.47;29.51;98637.78;10099579;29;20051;-76
2022/05/18 17:38:44;;;;;;;3.22;0.80;;;;;;;22.33;29.89;98632.34;10112615;29;20051;-79
2022/05/18 17:44:06;;;;;;;3.58;1.00;;;;;;;22.31;29.85;98637.97;10099593;29;20499;-76
2022/05/18 17:49:28;;;;;;;6.55;1.17;;;;;;;22.21;29.93;98640.44;10111978;29;20088;-78
2022/05/18 17:54:50;;;;;;;3.65;1.10;;;;;;;21.99;30.22;98629.69;10124559;29;20053;-74
2022/05/18 18:00:16;;;;;;;3.45;1.00;;;;;;;21.85;30.59;98636.97;10098851;29;20403;-75
2022/05/18 18:05:37;;;;;;;5.15;1.10;;;;;;;21.57;30.30;98647.97;10111306;29;20044;-75
2022/05/18 18:10:59;;;;;;;2.50;0.80;;;;;;;21.36;30.45;98635.09;10111218;29;20045;-73
2022/05/18 18:16:23;;;;;;;3.00;1.08;;;;;;;21.20;30.82;98637.28;10124283;29;20045;-74
2022/05/18 18:21:44;;;;;;;6.78;1.13;;;;;;;20.96;30.53;98634.19;10096866;29;20043;-76
2022/05/18 18:27:13;;;;;;;5.72;1.10;;;;;;;20.78;30.96;98632.06;10126004;29;20051;-81
2022/05/18 18:32:35;;;;;;;2.10;1.08;;;;;;;20.69;30.83;98633.09;10097684;29;20048;-77
2022/05/18 18:37:55;;;;;;;3.50;1.00;;;;;;;20.62;30.74;98630.66;10109369;29;20130;-76
2022/05/18 18:43:22;;;;;;;3.60;1.00;;;;;;;20.45;31.07;98634.91;10119847;29;20061;-79
2022/05/18 18:48:43;;;;;;;3.40;0.90;;;;;;;20.30;31.00;98634.28;10110280;29;20044;-81
2022/05/18 19:00:10;;;;;;;5.47;0.82;;;;;;;20.11;31.45;98649.03;10133315;29;20135;-76
2022/05/18 19:05:31;;;;;;;6.13;1.17;;;;;;;20.03;31.96;98660.00;10114777;29;20063;-77
2022/05/18 19:10:52;;;;;;;6.00;1.05;;;;;;;19.92;31.85;98660.91;10120370;29;20056;-79
2022/05/18 19:16:13;;;;;;;2.75;1.05;;;;;;;19.81;31.99;98664.66;10122045;29;20056;-75
2022/05/18 19:21:33;;;;;;;4.60;1.30;;;;;;;19.74;32.29;98669.31;10134247;29;20048;-75
2022/05/18 19:26:54;;;;;;;6.13;1.55;;;;;;;19.69;32.39;98673.31;10121335;29;20080;-76
2022/05/18 19:32:17;;;;;;;3.60;1.25;;;;;;;19.66;32.64;98664.00;10120623;29;20097;-77
2022/05/18 19:37:39;;;;;;;3.67;1.20;;;;;;;19.55;32.76;98658.47;10102391;29;20044;-77
2022/05/18 19:43:03;;;;;;;5.70;1.10;;;;;;;19.45;32.59;98667.22;10131502;29;20049;-74
2022/05/18 19:48:25;;;;;;;4.70;1.20;;;;;;;19.45;33.15;98664.38;10082801;29;20045;-75
2022/05/18 19:53:47;;;;;;;1.98;0.90;;;;;;;19.32;33.58;98673.69;10095803;29;20057;-74
2022/05/18 19:59:12;;;;;;;4.75;1.05;;;;;;;19.25;33.36;98672.66;10108366;29;20052;-84
2022/05/18 20:04:33;;;;;;;3.15;1.20;;;;;;;19.25;33.65;98674.75;10115014;29;20484;-83
2022/05/18 20:09:54;;;;;;;2.40;1.20;;;;;;;19.15;33.95;98672.16;10133730;29;20044;-75
2022/05/18 20:15:18;;;;;;;5.22;1.13;;;;;;;19.09;34.22;98672.59;10128649;29;20495;-76
2022/05/18 20:20:40;;;;;;;3.13;1.23;;;;;;;18.96;34.43;98664.16;10126804;29;20399;-75
2022/05/18 20:26:01;;;;;;;3.03;1.40;;;;;;;18.83;34.72;98669.22;10110397;29;20048;-75
2022/05/18 20:31:23;;;;;;;4.85;1.23;;;;;;;18.69;35.37;98660.00;10145274;29;20053;-77
2022/05/18 20:36:46;;;;;;;2.28;1.23;;;;;;;18.56;35.54;98658.63;10142159;29;20068;-76
2022/05/18 20:42:07;;;;;;;2.60;1.30;;;;;;;18.45;35.84;98658.75;10142341;29;20555;-76
2022/05/18 20:47:35;;;;;;;3.53;1.05;;;;;;;18.34;36.71;98663.16;10130834;29;20041;-75
2022/05/18 20:52:56;;;;;;;3.97;1.27;;;;;;;18.27;36.81;98655.72;10133552;29;20117;-75
2022/05/18 20:58:17;;;;;;;3.00;1.20;;;;;;;18.18;37.02;98665.13;10132881;29;20044;-75
2022/05/18 21:03:38;;;;;;;4.35;1.58;;;;;;;18.20;37.37;98651.09;10139609;29;20041;-75
2022/05/18 21:08:58;;;;;;;3.67;1.15;;;;;;;18.15;37.59;98657.91;10126945;29;20440;-74
2022/05/18 21:14:19;;;;;;;6.65;1.27;;;;;;;18.07;37.65;98654.66;10126610;29;20055;-74
2022/05/18 21:19:41;;;;;;;4.00;1.40;;;;;;;18.04;37.87;98659.47;10139129;29;20108;-74
2022/05/18 21:25:01;;;;;;;3.70;1.42;;;;;;;17.97;38.19;98652.78;10126134;29;20056;-75
2022/05/18 21:30:22;;;;;;;4.32;1.55;;;;;;;17.89;38.22;98660.81;10126066;29;20049;-74
2022/05/18 21:35:43;;;;;;;3.78;1.50;;;;;;;17.85;38.36;98657.75;10102149;29;20044;-76
2022/05/18 21:41:06;;;;;;;3.30;1.40;;;;;;;17.80;38.88;98661.72;10123167;29;20057;-74
2022/05/18 21:46:32;;;;;;;6.63;1.70;;;;;;;17.68;39.06;98661.78;10102235;29;20044;-75
2022/05/18 21:51:53;;;;;;;3.33;1.50;;;;;;;17.65;39.17;98670.75;10109611;29;20491;-76
2022/05/18 21:57:13;;;;;;;3.83;1.60;;;;;;;17.54;39.50;98663.09;10098537;29;20056;-74
2022/05/18 22:02:34;;;;;;;3.10;1.48;;;;;;;17.56;39.68;98666.03;10098680;29;20497;-74
2022/05/18 22:07:55;;;;;;;3.78;1.27;;;;;;;17.55;39.71;98670.19;10111148;29;20040;-74
2022/05/18 22:13:15;;;;;;;2.72;1.40;;;;;;;17.50;39.72;98660.06;10110106;29;20100;-75
2022/05/18 22:18:36;;;;;;;3.53;1.17;;;;;;;17.45;39.75;98661.91;10123540;29;20101;-75
2022/05/18 22:23:56;;;;;;;2.95;1.30;;;;;;;17.36;39.85;98669.19;10110880;29;20045;-74
2022/05/18 22:29:18;;;;;;;2.10;0.98;;;;;;;17.29;39.92;98673.06;10084917;29;20049;-74
2022/05/18 22:34:39;;;;;;;7.82;1.63;;;;;;;17.28;40.07;98671.59;10072407;29;20453;-74
2022/05/18 22:40:00;;;;;;;4.35;1.52;;;;;;;17.21;40.18;98664.13;10104311;29;20104;-74
2022/05/18 22:45:21;;;;;;;2.55;1.25;;;;;;;17.14;40.62;98657.41;10110635;29;20096;-74
2022/05/18 22:50:45;;;;;;;1.98;1.15;;;;;;;17.06;40.61;98665.41;10109878;29;20048;-76
2022/05/18 22:56:07;;;;;;;4.63;1.23;;;;;;;17.07;40.65;98652.03;10110137;29;20040;-75
2022/05/18 23:01:28;;;;;;;2.88;1.15;;;;;;;16.92;40.52;98658.97;10109099;29;20053;-74
2022/05/18 23:06:52;;;;;;;4.00;1.45;;;;;;;16.75;40.94;98651.66;10109410;29;20040;-76
2022/05/18 23:12:13;;;;;;;4.70;1.30;;;;;;;16.63;40.85;98647.38;10083390;29;20049;-77
2022/05/18 23:17:34;;;;;;;7.00;1.58;;;;;;;16.47;41.22;98650.72;10061083;29;20041;-77
2022/05/18 23:28:44;;;;;;;3.07;1.10;;;;;;;16.23;41.62;98650.03;10124753;29;20045;-76
2022/05/18 23:34:09;;;;;;;3.42;1.10;;;;;;;16.13;41.62;98648.69;10110616;29;20293;-76
2022/05/18 23:39:30;;;;;;;3.75;1.08;;;;;;;16.08;41.47;98652.59;10108377;29;20087;-77
2022/05/18 23:44:51;;;;;;;4.05;0.90;;;;;;;15.95;41.56;98654.66;10082757;29;20404;-75
2022/05/18 23:51:29;;;;;;;3.35;1.10;;;;;;;15.82;41.58;98649.63;10070018;29;20045;-76
2022/05/18 23:55:54;;;;;;;3.38;1.10;;;;;;;15.71;41.40;98655.97;10115179;29;20052;-75
